createdAt,value
2019-04-16T09:53:46.462Z,0.56
2019-04-16T10:30:11.999Z,1.47
2019-04-16T10:31:11.993Z,1.47
2019-04-16T10:32:11.973Z,1.46
2019-04-16T10:33:12.664Z,1.46
2019-04-16T10:34:11.926Z,1.46
2019-04-16T10:35:11.941Z,1.46
2019-04-16T10:36:11.923Z,1.46
2019-04-16T10:37:11.927Z,1.46
2019-04-16T10:38:13.645Z,1.46
2019-04-16T10:39:11.950Z,1.46
2019-04-16T10:40:11.920Z,1.40
2019-04-16T10:41:15.552Z,1.44
2019-04-16T10:42:15.540Z,1.39
2019-04-16T10:43:15.880Z,1.44
2019-04-16T10:44:15.878Z,1.46
2019-04-16T10:45:15.762Z,1.46
2019-04-16T10:46:19.615Z,1.44
2019-04-16T10:47:16.663Z,1.46
2019-04-16T10:48:15.496Z,1.40
2019-04-16T10:49:15.475Z,1.37
2019-04-16T10:50:15.495Z,1.34
2019-04-16T10:51:16.209Z,1.49
2019-04-16T10:52:15.443Z,1.47
2019-04-16T10:53:15.444Z,2.65
2019-04-16T10:54:15.429Z,2.56
2019-04-16T10:55:18.548Z,3.51
2019-04-16T10:56:20.655Z,3.62
2019-04-16T10:57:15.844Z,3.61
2019-04-16T10:58:15.382Z,3.58
2019-04-16T10:59:15.347Z,3.61
2019-04-16T11:00:15.358Z,3.53
2019-04-16T11:01:15.591Z,3.38
2019-04-16T11:02:15.343Z,2.35
2019-04-16T11:03:15.324Z,1.03
2019-04-16T11:04:16.323Z,1.71
2019-04-16T11:05:19.307Z,1.58
2019-04-16T11:06:15.358Z,1.56
2019-04-16T11:07:15.325Z,1.56
2019-04-16T11:08:15.261Z,1.56
2019-04-16T11:09:15.232Z,1.56
2019-04-16T11:10:15.289Z,1.56
2019-04-16T11:11:15.742Z,1.56
2019-04-16T11:12:15.250Z,1.57
2019-04-16T11:13:15.711Z,1.56
2019-04-16T11:14:15.222Z,1.57
2019-04-16T11:15:15.594Z,1.57
2019-04-16T11:16:15.612Z,1.56
2019-04-16T11:17:15.413Z,1.54
2019-04-16T11:18:15.245Z,1.56
2019-04-16T11:19:15.131Z,1.56
2019-04-16T11:20:15.400Z,1.54
2019-04-16T11:21:15.160Z,1.53
2019-04-16T11:22:15.157Z,1.53
2019-04-16T11:23:15.931Z,1.54
2019-04-16T11:24:15.879Z,1.56
2019-04-16T11:25:15.209Z,1.57
2019-04-16T11:26:15.221Z,1.57
2019-04-16T11:27:15.188Z,1.58
2019-04-16T11:28:15.097Z,1.58
2019-04-16T11:29:15.292Z,1.58
2019-04-16T11:30:15.262Z,1.59
2019-04-16T11:31:15.135Z,1.57
2019-04-16T11:32:15.017Z,1.61
2019-04-16T11:33:14.974Z,1.68
2019-04-16T11:34:15.229Z,1.71
2019-04-16T11:35:17.319Z,1.70
2019-04-16T11:36:19.636Z,1.65
2019-04-16T11:37:15.959Z,3.37
2019-04-16T11:38:17.309Z,3.37
2019-04-16T11:39:14.951Z,3.38
2019-04-16T11:40:14.943Z,3.39
2019-04-16T11:41:15.067Z,3.39
2019-04-16T11:42:14.878Z,3.39
2019-04-16T11:43:14.933Z,3.47
2019-04-16T11:44:17.177Z,3.49
2019-04-16T11:45:14.898Z,3.48
2019-04-16T11:46:14.890Z,3.46
2019-04-16T11:47:14.957Z,3.42
2019-04-16T11:48:14.875Z,3.43
2019-04-16T11:49:14.816Z,3.43
2019-04-16T11:50:14.815Z,3.42
2019-04-16T11:51:14.814Z,3.40
2019-04-16T11:52:14.835Z,3.40
2019-04-16T11:53:14.793Z,3.43
2019-04-16T11:54:14.755Z,3.44
2019-04-16T11:55:14.749Z,3.44
2019-04-16T11:56:14.788Z,3.42
2019-04-16T11:57:14.816Z,3.43
2019-04-16T11:58:14.749Z,3.42
2019-04-16T11:59:14.719Z,3.43
2019-04-16T12:00:14.722Z,3.46
2019-04-16T12:01:14.714Z,3.47
2019-04-16T12:02:14.768Z,3.46
2019-04-16T12:03:14.949Z,3.47
2019-04-16T12:04:16.434Z,3.47
2019-04-16T12:05:14.630Z,3.44
2019-04-16T12:06:27.445Z,3.52
2019-04-16T12:07:17.425Z,3.52
2019-04-16T12:08:14.607Z,3.58
2019-04-16T12:09:14.873Z,3.56
2019-04-16T12:10:14.601Z,3.56
2019-04-16T12:11:14.592Z,3.63
2019-04-16T12:12:14.929Z,3.76
2019-04-16T12:13:14.825Z,3.83
2019-04-16T12:14:28.642Z,3.85
2019-04-16T12:15:17.359Z,3.82
2019-04-16T12:16:14.612Z,4.10
2019-04-16T12:17:14.543Z,4.78
2019-04-16T12:18:14.526Z,5.61
2019-04-16T12:19:14.691Z,6.47
2019-04-16T12:20:14.516Z,6.64
2019-04-16T12:21:14.513Z,6.51
2019-04-16T12:22:14.466Z,6.70
2019-04-16T12:23:14.689Z,6.52
2019-04-16T12:24:14.704Z,6.39
2019-04-16T12:25:14.477Z,6.09
2019-04-16T12:26:14.636Z,5.90
2019-04-16T12:27:14.472Z,5.72
2019-04-16T12:28:14.415Z,5.64
2019-04-16T12:29:14.553Z,5.70
2019-04-16T12:30:14.589Z,5.33
2019-04-16T12:31:16.635Z,5.05
2019-04-16T12:32:14.561Z,5.16
2019-04-16T12:33:15.067Z,5.30
2019-04-16T12:34:14.346Z,5.58
2019-04-16T12:35:14.988Z,6.34
2019-04-16T12:36:14.719Z,6.96
2019-04-16T12:37:14.614Z,7.02
2019-04-16T12:38:18.176Z,6.99
2019-04-16T12:39:18.793Z,6.78
2019-04-16T12:40:19.365Z,6.13
2019-04-16T12:41:15.280Z,5.58
2019-04-16T12:42:14.279Z,5.80
2019-04-16T12:43:16.022Z,6.21
2019-04-16T12:44:14.792Z,6.48
2019-04-16T12:45:14.705Z,6.38
2019-04-16T12:46:14.397Z,6.39
2019-04-16T12:47:14.944Z,6.05
2019-04-16T12:48:14.742Z,6.10
2019-04-16T12:49:14.343Z,5.91
2019-04-16T12:50:16.750Z,6.06
2019-04-16T12:51:14.398Z,6.16
2019-04-16T12:52:17.205Z,6.40
2019-04-16T12:53:14.265Z,6.42
2019-04-16T12:54:14.447Z,6.82
2019-04-16T12:55:14.264Z,6.40
2019-04-16T12:56:14.150Z,7.09
2019-04-16T12:57:16.499Z,7.44
2019-04-16T12:58:18.882Z,7.32
2019-04-16T12:59:15.212Z,7.11
2019-04-16T13:00:14.109Z,7.15
2019-04-16T13:01:14.091Z,7.39
2019-04-16T13:02:14.308Z,7.40
2019-04-16T13:03:17.749Z,7.28
2019-04-16T13:04:14.031Z,7.43
2019-04-16T13:05:14.121Z,7.52
2019-04-16T13:06:14.392Z,7.33
2019-04-16T13:07:14.039Z,7.42
2019-04-16T13:08:13.986Z,7.40
2019-04-16T13:09:14.507Z,7.58
2019-04-16T13:10:14.522Z,7.59
2019-04-16T13:11:13.999Z,7.54
2019-04-16T13:12:14.229Z,7.52
2019-04-16T13:13:14.058Z,7.56
2019-04-16T13:14:14.174Z,7.39
2019-04-16T13:15:13.946Z,7.32
2019-04-16T13:16:13.913Z,7.38
2019-04-16T13:17:18.692Z,7.67
2019-04-16T13:18:13.920Z,7.61
2019-04-16T13:19:13.966Z,7.61
2019-04-16T13:20:13.936Z,7.61
2019-04-16T13:21:13.889Z,7.54
2019-04-16T13:22:13.949Z,7.49
2019-04-16T13:23:13.952Z,7.49
2019-04-16T13:24:14.038Z,7.47
2019-04-16T13:25:13.823Z,7.49
2019-04-16T13:26:14.011Z,7.39
2019-04-16T13:27:13.811Z,7.58
2019-04-16T13:28:14.049Z,7.48
2019-04-16T13:29:16.826Z,7.48
2019-04-16T13:30:14.282Z,7.71
2019-04-16T13:31:13.789Z,7.53
2019-04-16T13:32:13.948Z,7.57
2019-04-16T13:33:13.768Z,7.56
2019-04-16T13:34:18.340Z,7.29
2019-04-16T13:35:14.758Z,7.20
2019-04-16T13:36:13.704Z,7.48
2019-04-16T13:37:13.706Z,7.53
2019-04-16T13:38:13.720Z,7.51
2019-04-16T13:39:13.722Z,7.42
2019-04-16T13:40:13.684Z,7.25
2019-04-16T13:41:13.670Z,7.42
2019-04-16T13:42:13.662Z,7.43
2019-04-16T13:43:13.640Z,7.47
2019-04-16T13:44:16.919Z,7.35
2019-04-16T13:45:17.594Z,7.39
2019-04-16T13:46:15.124Z,7.24
2019-04-16T13:47:13.635Z,7.39
2019-04-16T13:48:16.552Z,7.23
2019-04-16T13:49:13.599Z,6.91
2019-04-16T13:50:13.803Z,6.73
2019-04-16T13:51:18.462Z,6.51
2019-04-16T13:52:17.030Z,6.43
2019-04-16T13:53:14.605Z,6.37
2019-04-16T13:54:13.557Z,5.13
2019-04-16T13:55:13.525Z,5.10
2019-04-16T13:56:19.076Z,6.20
2019-04-16T13:57:14.265Z,6.18
2019-04-16T13:58:13.523Z,6.04
2019-04-16T13:59:13.505Z,6.78
2019-04-16T14:00:13.473Z,6.80
2019-04-16T14:01:13.467Z,6.62
2019-04-16T14:02:17.750Z,6.75
2019-04-16T14:03:14.452Z,6.43
2019-04-16T14:04:13.455Z,6.71
2019-04-16T14:05:13.440Z,6.73
2019-04-16T14:06:13.483Z,6.85
2019-04-16T14:07:13.410Z,6.87
2019-04-16T14:08:13.404Z,7.05
2019-04-16T14:09:13.381Z,6.91
2019-04-16T14:10:13.377Z,7.00
2019-04-16T14:11:13.388Z,6.71
2019-04-16T14:12:13.359Z,6.80
2019-04-16T14:13:14.291Z,6.49
2019-04-16T14:14:17.388Z,6.48
2019-04-16T14:15:13.328Z,6.77
2019-04-16T14:16:13.673Z,6.97
2019-04-16T14:17:17.730Z,6.99
2019-04-16T14:18:13.461Z,6.63
2019-04-16T14:19:14.162Z,6.49
2019-04-16T14:20:13.925Z,6.68
2019-04-16T14:21:14.480Z,6.49
2019-04-16T14:22:13.482Z,6.39
2019-04-16T14:23:13.718Z,6.45
2019-04-16T14:24:14.023Z,6.42
2019-04-16T14:25:13.284Z,6.21
2019-04-16T14:26:13.317Z,6.44
2019-04-16T14:27:14.462Z,5.72
2019-04-16T14:28:13.181Z,6.38
2019-04-16T14:29:13.169Z,6.28
2019-04-16T14:30:13.181Z,6.18
2019-04-16T14:31:16.276Z,6.24
2019-04-16T14:32:13.488Z,6.19
2019-04-16T14:33:13.200Z,6.13
2019-04-16T14:34:13.183Z,6.10
2019-04-16T14:35:13.109Z,6.24
2019-04-16T14:36:13.109Z,6.37
2019-04-16T14:37:13.111Z,6.14
2019-04-16T14:38:13.081Z,5.76
2019-04-16T14:39:13.089Z,5.80
2019-04-16T14:40:14.329Z,6.11
2019-04-16T14:41:16.152Z,5.94
2019-04-16T14:42:23.053Z,5.90
2019-04-16T14:43:14.942Z,6.01
2019-04-16T14:44:13.774Z,5.21
2019-04-16T14:45:13.695Z,3.86
2019-04-16T14:46:13.002Z,5.82
2019-04-16T14:47:12.981Z,5.67
2019-04-16T14:48:12.984Z,5.54
2019-04-16T14:49:15.248Z,5.81
2019-04-16T14:50:13.966Z,6.18
2019-04-16T14:51:12.965Z,6.04
2019-04-16T14:52:12.921Z,5.67
2019-04-16T14:53:12.921Z,5.52
2019-04-16T14:54:12.904Z,5.30
2019-04-16T14:55:12.946Z,4.27
2019-04-16T14:56:12.926Z,4.15
2019-04-16T14:57:12.905Z,4.27
2019-04-16T14:58:16.038Z,4.89
2019-04-16T14:59:12.918Z,4.06
2019-04-16T15:00:12.930Z,4.01
2019-04-16T15:01:12.858Z,3.73
2019-04-16T15:02:13.064Z,3.49
2019-04-16T15:03:12.869Z,3.80
2019-04-16T15:04:12.826Z,4.16
2019-04-16T15:05:15.764Z,3.57
2019-04-16T15:06:13.403Z,3.58
2019-04-16T15:07:12.802Z,3.11
2019-04-16T15:08:12.775Z,3.23
2019-04-16T15:09:12.755Z,3.47
2019-04-16T15:10:12.767Z,3.21
2019-04-16T15:11:13.517Z,2.82
2019-04-16T15:12:12.895Z,2.73
2019-04-16T15:13:12.935Z,3.01
2019-04-16T15:14:23.428Z,3.10
2019-04-16T15:15:13.607Z,3.01
2019-04-16T15:16:14.302Z,3.16
2019-04-16T15:17:13.399Z,3.28
2019-04-16T15:18:12.729Z,3.33
2019-04-16T15:19:12.970Z,3.62
2019-04-16T15:20:13.156Z,4.11
2019-04-16T15:21:13.079Z,3.99
2019-04-16T15:22:14.527Z,3.89
2019-04-16T15:23:12.748Z,3.59
2019-04-16T15:24:15.929Z,4.11
2019-04-16T15:25:13.740Z,4.30
2019-04-16T15:26:12.784Z,3.67
2019-04-16T15:27:12.618Z,3.14
2019-04-16T15:28:12.599Z,2.95
2019-04-16T15:29:12.539Z,2.54
2019-04-16T15:30:12.531Z,2.54
2019-04-16T15:31:12.520Z,2.70
2019-04-16T15:32:12.575Z,2.90
2019-04-16T15:33:12.549Z,2.95
2019-04-16T15:34:12.495Z,2.84
2019-04-16T15:35:14.873Z,2.32
2019-04-16T15:36:17.715Z,2.46
2019-04-16T15:37:16.394Z,2.72
2019-04-16T15:38:48.462Z,2.70
2019-04-16T15:39:13.106Z,2.94
2019-04-16T15:40:13.263Z,3.23
2019-04-16T15:41:13.374Z,3.29
2019-04-16T15:42:16.352Z,2.84
2019-04-16T15:43:12.586Z,2.72
2019-04-16T15:44:12.789Z,2.67
2019-04-16T15:45:13.625Z,3.00
2019-04-16T15:46:25.510Z,3.05
2019-04-16T15:47:14.841Z,2.95
2019-04-16T15:48:14.846Z,3.04
2019-04-16T15:49:13.373Z,2.92
2019-04-16T15:50:12.371Z,2.91
2019-04-16T15:51:14.882Z,2.59
2019-04-16T15:52:12.471Z,2.75
2019-04-16T15:53:12.582Z,2.01
2019-04-16T15:54:12.286Z,1.73
2019-04-16T15:55:12.316Z,1.95
2019-04-16T15:56:12.253Z,1.58
2019-04-16T15:57:12.271Z,1.76
2019-04-16T15:58:12.229Z,1.77
2019-04-16T15:59:14.128Z,1.84
2019-04-16T16:00:12.348Z,1.94
2019-04-16T16:01:13.547Z,2.03
2019-04-16T16:02:12.307Z,2.11
2019-04-16T16:03:12.415Z,2.15
2019-04-16T16:04:12.395Z,2.08
2019-04-16T16:05:12.698Z,2.21
2019-04-16T16:06:12.969Z,2.42
2019-04-16T16:07:12.225Z,2.59
2019-04-16T16:08:12.127Z,2.67
2019-04-16T16:09:12.507Z,2.70
2019-04-16T16:10:13.789Z,2.70
2019-04-16T16:11:16.384Z,2.70
2019-04-16T16:12:12.261Z,2.59
2019-04-16T16:13:12.173Z,2.34
2019-04-16T16:14:12.097Z,2.38
2019-04-16T16:15:12.422Z,2.28
2019-04-16T16:16:17.426Z,2.00
2019-04-16T16:17:13.108Z,2.35
2019-04-16T16:18:12.024Z,2.49
2019-04-16T16:19:12.243Z,2.54
2019-04-16T16:20:11.992Z,2.56
2019-04-16T16:21:11.979Z,3.04
2019-04-16T16:22:12.234Z,2.96
2019-04-16T16:23:11.984Z,2.68
2019-04-16T16:24:11.959Z,2.57
2019-04-16T16:25:11.985Z,2.42
2019-04-16T16:26:11.930Z,2.39
2019-04-16T16:27:11.972Z,2.52
2019-04-16T16:28:11.941Z,2.66
2019-04-16T16:29:14.117Z,2.39
2019-04-16T16:30:14.523Z,2.44
2019-04-16T16:31:13.011Z,2.44
2019-04-16T16:32:12.494Z,2.23
2019-04-16T16:33:11.936Z,2.10
2019-04-16T16:34:11.973Z,1.85
2019-04-16T16:35:16.720Z,1.84
2019-04-16T16:36:13.237Z,1.48
2019-04-16T16:37:11.950Z,1.54
2019-04-16T16:38:14.055Z,1.43
2019-04-16T16:39:11.783Z,1.39
2019-04-16T16:40:14.789Z,1.43
2019-04-16T16:41:12.105Z,1.53
2019-04-16T16:42:11.976Z,1.46
2019-04-16T16:43:14.156Z,1.33
2019-04-16T16:44:11.798Z,1.47
2019-04-16T16:45:11.761Z,1.67
2019-04-16T16:46:11.760Z,1.63
2019-04-16T16:47:11.735Z,1.70
2019-04-16T16:48:11.674Z,1.61
2019-04-16T16:49:11.709Z,1.56
2019-04-16T16:50:11.718Z,1.58
2019-04-16T16:51:14.849Z,1.29
2019-04-16T16:52:11.937Z,1.13
2019-04-16T16:53:12.006Z,0.96
2019-04-16T16:54:11.859Z,0.92
2019-04-16T16:55:11.750Z,0.91
2019-04-16T16:56:13.594Z,0.90
2019-04-16T16:57:11.608Z,0.89
2019-04-16T16:58:11.581Z,0.85
2019-04-16T16:59:12.091Z,0.84
2019-04-16T17:00:11.711Z,0.86
2019-04-16T17:01:13.910Z,0.91
2019-04-16T17:02:11.656Z,0.92
2019-04-16T17:03:11.552Z,0.91
2019-04-16T17:04:11.572Z,0.86
2019-04-16T17:05:11.863Z,0.85
2019-04-16T17:06:11.572Z,0.81
2019-04-16T17:07:11.563Z,0.80
2019-04-16T17:08:11.650Z,0.76
2019-04-16T17:09:11.813Z,0.73
2019-04-16T17:10:11.787Z,0.72
2019-04-16T17:11:16.440Z,0.73
2019-04-16T17:12:12.502Z,0.76
2019-04-16T17:13:14.650Z,0.78
2019-04-16T17:14:12.422Z,0.78
2019-04-16T17:15:11.510Z,0.78
2019-04-16T17:16:14.415Z,0.78
2019-04-16T17:17:14.757Z,0.78
2019-04-16T17:18:11.363Z,0.76
2019-04-16T17:19:11.351Z,0.73
2019-04-16T17:20:11.336Z,0.70
2019-04-16T17:21:11.375Z,0.65
2019-04-16T17:22:11.319Z,0.62
2019-04-16T17:23:16.419Z,0.59
2019-04-16T17:24:12.289Z,0.57
2019-04-16T17:25:12.235Z,0.54
2019-04-16T17:26:15.470Z,0.52
2019-04-16T17:27:11.287Z,0.52
2019-04-16T17:28:11.257Z,0.52
2019-04-16T17:29:11.261Z,0.49
2019-04-16T17:30:11.231Z,0.48
2019-04-16T17:31:11.216Z,0.46
2019-04-16T17:32:11.218Z,0.44
2019-04-16T17:33:11.189Z,0.43
2019-04-16T17:34:11.194Z,0.42
2019-04-16T17:35:15.568Z,0.41
2019-04-16T17:36:11.190Z,0.39
2019-04-16T17:37:11.159Z,0.38
2019-04-16T17:38:11.137Z,0.38
2019-04-16T17:39:11.130Z,0.37
2019-04-16T17:40:16.117Z,0.37
2019-04-16T17:41:12.137Z,0.37
2019-04-16T17:42:11.113Z,0.37
2019-04-16T17:43:13.815Z,0.37
2019-04-16T17:44:11.106Z,0.37
2019-04-16T17:45:11.068Z,0.35
2019-04-16T17:46:11.078Z,0.34
2019-04-16T17:47:11.042Z,0.33
2019-04-16T17:48:11.073Z,0.32
2019-04-16T17:49:11.055Z,0.30
2019-04-16T17:50:11.035Z,0.29
2019-04-16T17:51:11.004Z,0.28
2019-04-16T17:52:10.989Z,0.25
2019-04-16T17:53:11.152Z,0.24
2019-04-16T17:54:10.982Z,0.23
2019-04-16T17:55:10.948Z,0.23
2019-04-16T17:56:10.938Z,0.22
2019-04-16T17:57:10.932Z,0.22
2019-04-16T17:58:10.939Z,0.20
2019-04-16T17:59:10.926Z,0.19
2019-04-16T18:00:10.910Z,0.18
2019-04-16T18:01:11.130Z,0.18
2019-04-16T18:02:10.921Z,0.16
2019-04-16T18:03:10.888Z,0.16
2019-04-16T18:04:11.633Z,0.15
2019-04-16T18:05:10.838Z,0.15
2019-04-16T18:06:10.849Z,0.14
2019-04-16T18:07:10.825Z,0.13
2019-04-16T18:08:10.834Z,0.13
2019-04-16T18:09:10.830Z,0.11
2019-04-16T18:10:10.789Z,0.11
2019-04-16T18:11:10.911Z,0.10
2019-04-16T18:12:10.770Z,0.10
2019-04-16T18:13:10.772Z,0.09
2019-04-16T18:14:11.503Z,0.09
2019-04-16T18:15:16.238Z,0.08
2019-04-16T18:16:11.173Z,0.08
2019-04-16T18:17:10.753Z,0.08
2019-04-16T18:18:15.515Z,0.06
2019-04-16T18:19:11.848Z,0.06
2019-04-16T18:20:10.688Z,0.05
2019-04-16T18:21:10.726Z,0.05
2019-04-16T18:22:10.682Z,0.05
2019-04-16T18:23:10.688Z,0.04
2019-04-16T18:24:10.682Z,0.04
2019-04-16T18:25:10.630Z,0.04
2019-04-16T18:26:10.615Z,0.03
2019-04-16T18:27:10.612Z,0.03
2019-04-16T18:28:10.614Z,0.03
2019-04-16T18:29:10.671Z,0.03
2019-04-16T18:30:10.591Z,0.01
2019-04-16T18:31:10.714Z,0.01
2019-04-16T18:32:11.945Z,0.01
2019-04-16T18:33:10.644Z,0.01
2019-04-16T18:34:10.561Z,0.01
2019-04-16T18:35:10.547Z,0.01
2019-04-16T18:36:10.612Z,0.01
2019-04-16T18:37:10.519Z,0.00
2019-04-16T18:38:10.528Z,0.00
2019-04-16T18:39:10.906Z,0.00
2019-04-16T18:40:10.510Z,0.00
2019-04-16T18:41:10.628Z,0.00
2019-04-16T18:42:10.450Z,0.00
2019-04-16T18:43:10.501Z,0.00
2019-04-16T18:44:12.758Z,0.00
2019-04-16T18:45:10.414Z,0.00
2019-04-16T18:46:10.530Z,0.00
2019-04-16T18:47:11.037Z,0.00
2019-04-16T18:48:13.839Z,0.00
2019-04-16T18:49:10.382Z,0.00
2019-04-16T18:50:10.384Z,0.00
2019-04-16T18:51:10.371Z,0.00
2019-04-16T18:52:10.647Z,0.00
2019-04-16T18:53:12.165Z,0.00
2019-04-16T18:54:14.928Z,0.00
2019-04-16T18:55:10.335Z,0.00
2019-04-16T18:56:11.012Z,0.00
2019-04-16T18:57:10.369Z,0.00
2019-04-16T18:58:10.323Z,0.00
2019-04-16T18:59:10.252Z,0.00
2019-04-16T19:00:10.231Z,0.00
2019-04-16T19:01:10.231Z,0.00
2019-04-16T19:02:10.241Z,0.00
2019-04-16T19:03:14.753Z,0.00
2019-04-16T19:04:11.754Z,0.00
2019-04-16T19:05:10.884Z,0.00
2019-04-16T19:06:10.561Z,0.00
2019-04-16T19:07:10.254Z,0.00
2019-04-16T19:08:10.182Z,0.00
2019-04-16T19:09:10.139Z,0.00
2019-04-16T19:10:10.155Z,0.00
2019-04-16T19:11:10.140Z,0.00
2019-04-16T19:12:10.133Z,0.00
2019-04-16T19:13:11.700Z,0.00
2019-04-16T19:14:13.040Z,0.00
2019-04-16T19:15:10.081Z,0.00
2019-04-16T19:16:10.111Z,0.00
2019-04-16T19:17:10.070Z,0.00
2019-04-16T19:18:19.006Z,0.00
2019-04-16T19:19:11.039Z,0.00
2019-04-16T19:20:10.019Z,0.00
2019-04-16T19:21:10.006Z,0.00
2019-04-16T19:22:10.021Z,0.00
2019-04-16T19:23:09.993Z,0.00
2019-04-16T19:24:09.999Z,0.00
2019-04-16T19:25:10.038Z,0.00
2019-04-16T19:26:09.965Z,0.00
2019-04-16T19:27:09.946Z,0.00
2019-04-16T19:28:09.926Z,0.00
2019-04-16T19:29:14.505Z,0.00
2019-04-16T19:30:10.693Z,0.00
2019-04-16T19:31:25.139Z,0.00
2019-04-16T19:32:09.973Z,0.00
2019-04-16T19:33:10.456Z,0.00
2019-04-16T19:34:10.671Z,0.00
2019-04-16T19:35:14.432Z,0.00
2019-04-16T19:36:11.335Z,0.00
2019-04-16T19:37:09.977Z,0.00
2019-04-16T19:38:09.933Z,0.00
2019-04-16T19:39:13.836Z,0.00
2019-04-16T19:40:10.928Z,0.00
2019-04-16T19:41:10.167Z,0.00
2019-04-16T19:42:11.385Z,0.00
2019-04-16T19:43:09.990Z,0.00
2019-04-16T19:44:10.039Z,0.00
2019-04-16T19:45:12.126Z,0.00
2019-04-16T19:46:15.382Z,0.00
2019-04-16T19:47:10.781Z,0.00
2019-04-16T19:48:09.726Z,0.00
2019-04-16T19:49:09.718Z,0.00
2019-04-16T19:50:09.745Z,0.00
2019-04-16T19:51:09.682Z,0.00
2019-04-16T19:52:09.688Z,0.00
2019-04-16T19:53:13.771Z,0.00
2019-04-16T19:54:10.648Z,0.00
2019-04-16T19:55:12.253Z,0.00
2019-04-16T19:56:09.630Z,0.00
2019-04-16T19:57:09.737Z,0.00
2019-04-16T19:58:09.727Z,0.00
2019-04-16T19:59:09.599Z,0.00
2019-04-16T20:00:09.577Z,0.00
2019-04-16T20:01:11.999Z,0.00
2019-04-16T20:02:09.563Z,0.00
2019-04-16T20:03:09.765Z,0.00
2019-04-16T20:04:10.850Z,0.00
2019-04-16T20:05:09.519Z,0.00
2019-04-16T20:06:09.523Z,0.00
2019-04-16T20:07:09.514Z,0.00
2019-04-16T20:08:09.524Z,0.00
2019-04-16T20:09:09.698Z,0.00
2019-04-16T20:10:09.517Z,0.00
2019-04-16T20:11:09.461Z,0.00
2019-04-16T20:12:09.448Z,0.00
2019-04-16T20:13:09.431Z,0.00
2019-04-16T20:14:09.637Z,0.00
2019-04-16T20:15:09.851Z,0.00
2019-04-16T20:16:09.418Z,0.00
2019-04-16T20:17:09.409Z,0.00
2019-04-16T20:18:09.397Z,0.00
2019-04-16T20:19:09.396Z,0.00
2019-04-16T20:20:09.372Z,0.00
2019-04-16T20:21:09.368Z,0.00
2019-04-16T20:22:09.351Z,0.00
2019-04-16T20:23:09.659Z,0.00
2019-04-16T20:24:09.348Z,0.00
2019-04-16T20:25:09.309Z,0.00
2019-04-16T20:26:09.332Z,0.00
2019-04-16T20:27:09.291Z,0.00
2019-04-16T20:28:12.687Z,0.00
2019-04-16T20:29:10.297Z,0.00
2019-04-16T20:30:09.272Z,0.00
2019-04-16T20:31:09.246Z,0.00
2019-04-16T20:32:09.255Z,0.00
2019-04-16T20:33:09.512Z,0.00
2019-04-16T20:34:09.311Z,0.00
2019-04-16T20:35:09.553Z,0.00
2019-04-16T20:36:09.410Z,0.00
2019-04-16T20:37:09.429Z,0.00
2019-04-16T20:38:09.172Z,0.00
2019-04-16T20:39:09.320Z,0.00
2019-04-16T20:40:10.839Z,0.00
2019-04-16T20:41:09.215Z,0.00
2019-04-16T20:42:09.206Z,0.00
2019-04-16T20:43:09.128Z,0.00
2019-04-16T20:44:09.635Z,0.00
2019-04-16T20:45:09.137Z,0.00
2019-04-16T20:46:09.087Z,0.00
2019-04-16T20:47:09.094Z,0.00
2019-04-16T20:48:12.398Z,0.00
2019-04-16T20:49:10.739Z,0.00
2019-04-16T20:50:09.045Z,0.00
2019-04-16T20:51:09.051Z,0.00
2019-04-16T20:52:09.028Z,0.00
2019-04-16T20:53:09.274Z,0.00
2019-04-16T20:54:12.225Z,0.00
2019-04-16T20:55:08.996Z,0.00
2019-04-16T20:56:10.707Z,0.00
2019-04-16T20:57:09.000Z,0.00
2019-04-16T20:58:08.950Z,0.00
2019-04-16T20:59:08.966Z,0.00
2019-04-16T21:00:10.899Z,0.00
2019-04-16T21:01:08.912Z,0.00
2019-04-16T21:02:08.917Z,0.00
2019-04-16T21:03:21.334Z,0.00
2019-04-16T21:04:09.924Z,0.00
2019-04-16T21:05:21.531Z,0.00
2019-04-16T21:06:09.902Z,0.00
2019-04-16T21:07:14.318Z,0.00
2019-04-16T21:08:09.881Z,0.00
2019-04-16T21:09:08.849Z,0.00
2019-04-16T21:10:08.859Z,0.00
2019-04-16T21:11:09.583Z,0.00
2019-04-16T21:12:12.885Z,0.00
2019-04-16T21:13:08.777Z,0.00
2019-04-16T21:14:08.789Z,0.00
2019-04-16T21:15:08.770Z,0.00
2019-04-16T21:16:08.788Z,0.00
2019-04-16T21:17:08.755Z,0.00
2019-04-16T21:18:11.923Z,0.00
2019-04-16T21:19:22.491Z,0.00
2019-04-16T21:20:09.780Z,0.00
2019-04-16T21:21:08.729Z,0.00
2019-04-16T21:22:08.699Z,0.00
2019-04-16T21:23:08.681Z,0.00
2019-04-16T21:24:09.216Z,0.00
2019-04-16T21:25:12.996Z,0.00
2019-04-16T21:26:09.677Z,0.00
2019-04-16T21:27:10.586Z,0.00
2019-04-16T21:28:08.638Z,0.00
2019-04-16T21:29:08.627Z,0.00
2019-04-16T21:30:12.773Z,0.00
2019-04-16T21:31:08.596Z,0.00
2019-04-16T21:32:10.626Z,0.00
2019-04-16T21:33:08.565Z,0.00
2019-04-16T21:34:08.558Z,0.00
2019-04-16T21:35:08.548Z,0.00
2019-04-16T21:36:08.548Z,0.00
2019-04-16T21:37:09.573Z,0.00
2019-04-16T21:38:08.566Z,0.00
2019-04-16T21:39:08.512Z,0.00
2019-04-16T21:40:08.502Z,0.00
2019-04-16T21:41:08.519Z,0.00
2019-04-16T21:42:08.480Z,0.00
2019-04-16T21:43:08.961Z,0.00
2019-04-16T21:44:11.550Z,0.00
2019-04-16T21:45:08.468Z,0.00
2019-04-16T21:46:08.427Z,0.00
2019-04-16T21:47:08.421Z,0.00
2019-04-16T21:48:12.233Z,0.00
2019-04-16T21:49:09.062Z,0.00
2019-04-16T21:50:08.559Z,0.00
2019-04-16T21:51:09.829Z,0.00
2019-04-16T21:52:08.367Z,0.00
2019-04-16T21:53:08.366Z,0.00
2019-04-16T21:54:08.356Z,0.00
2019-04-16T21:55:08.342Z,0.00
2019-04-16T21:56:09.043Z,0.00
2019-04-16T21:57:09.857Z,0.00
2019-04-16T21:58:08.305Z,0.00
2019-04-16T21:59:08.294Z,0.00
2019-04-16T22:00:08.278Z,0.00
2019-04-16T22:01:08.300Z,0.00
2019-04-16T22:02:08.258Z,0.00
2019-04-16T22:03:09.818Z,0.00
2019-04-16T22:04:13.565Z,0.00
2019-04-16T22:05:08.935Z,0.00
2019-04-16T22:06:08.462Z,0.00
2019-04-16T22:07:08.773Z,0.00
2019-04-16T22:08:08.188Z,0.00
2019-04-16T22:09:08.183Z,0.00
2019-04-16T22:10:08.165Z,0.00
2019-04-16T22:11:11.483Z,0.00
2019-04-16T22:12:08.148Z,0.00
2019-04-16T22:13:08.145Z,0.00
2019-04-16T22:14:08.261Z,0.00
2019-04-16T22:15:08.179Z,0.00
2019-04-16T22:16:08.105Z,0.00
2019-04-16T22:17:08.516Z,0.00
2019-04-16T22:18:09.917Z,0.00
2019-04-16T22:19:10.892Z,0.00
2019-04-16T22:20:09.128Z,0.00
2019-04-16T22:21:10.981Z,0.00
2019-04-16T22:22:08.053Z,0.00
2019-04-16T22:23:08.024Z,0.00
2019-04-16T22:24:08.188Z,0.00
2019-04-16T22:25:08.321Z,0.00
2019-04-16T22:26:10.794Z,0.00
2019-04-16T22:27:08.543Z,0.00
2019-04-16T22:28:11.994Z,0.00
2019-04-16T22:29:07.953Z,0.00
2019-04-16T22:30:07.964Z,0.00
2019-04-16T22:31:07.942Z,0.00
2019-04-16T22:32:07.935Z,0.00
2019-04-16T22:33:07.954Z,0.00
2019-04-16T22:34:07.906Z,0.00
2019-04-16T22:35:07.900Z,0.00
2019-04-16T22:36:07.875Z,0.00
2019-04-16T22:37:07.865Z,0.00
2019-04-16T22:38:12.951Z,0.00
2019-04-16T22:39:08.867Z,0.00
2019-04-16T22:40:07.851Z,0.00
2019-04-16T22:41:07.833Z,0.00
2019-04-16T22:42:07.831Z,0.00
2019-04-16T22:43:08.582Z,0.00
2019-04-16T22:44:07.824Z,0.00
2019-04-16T22:45:07.786Z,0.00
2019-04-16T22:46:07.776Z,0.00
2019-04-16T22:47:07.765Z,0.00
2019-04-16T22:48:07.763Z,0.00
2019-04-16T22:49:07.732Z,0.00
2019-04-16T22:50:16.341Z,0.00
2019-04-16T22:51:10.421Z,0.00
2019-04-16T22:52:07.962Z,0.00
2019-04-16T22:53:07.808Z,0.00
2019-04-16T22:54:07.693Z,0.00
2019-04-16T22:55:07.672Z,0.00
2019-04-16T22:56:07.667Z,0.00
2019-04-16T22:57:07.712Z,0.00
2019-04-16T22:58:07.663Z,0.00
2019-04-16T22:59:08.373Z,0.00
2019-04-16T23:00:11.422Z,0.00
2019-04-16T23:01:08.603Z,0.00
2019-04-16T23:02:07.608Z,0.00
2019-04-16T23:03:07.594Z,0.00
2019-04-16T23:04:07.647Z,0.00
2019-04-16T23:05:07.574Z,0.00
2019-04-16T23:06:08.256Z,0.00
2019-04-16T23:07:08.749Z,0.00
2019-04-16T23:08:08.785Z,0.00
2019-04-16T23:09:07.548Z,0.00
2019-04-16T23:10:07.514Z,0.00
2019-04-16T23:11:07.516Z,0.00
2019-04-16T23:12:07.495Z,0.00
2019-04-16T23:13:07.472Z,0.00
2019-04-16T23:14:07.481Z,0.00
2019-04-16T23:15:07.482Z,0.00
2019-04-16T23:16:07.483Z,0.00
2019-04-16T23:17:07.474Z,0.00
2019-04-16T23:18:07.440Z,0.00
2019-04-16T23:19:07.430Z,0.00
2019-04-16T23:20:07.572Z,0.00
2019-04-16T23:21:10.120Z,0.00
2019-04-16T23:22:07.379Z,0.00
2019-04-16T23:23:07.372Z,0.00
2019-04-16T23:24:07.548Z,0.00
2019-04-16T23:25:07.635Z,0.00
2019-04-16T23:26:07.622Z,0.00
2019-04-16T23:27:07.725Z,0.00
2019-04-16T23:28:10.702Z,0.00
2019-04-16T23:29:07.332Z,0.00
2019-04-16T23:30:07.304Z,0.00
2019-04-16T23:31:07.281Z,0.00
2019-04-16T23:32:07.272Z,0.00
2019-04-16T23:33:07.258Z,0.00
2019-04-16T23:34:07.272Z,0.00
2019-04-16T23:35:10.793Z,0.00
2019-04-16T23:36:07.238Z,0.00
2019-04-16T23:37:07.224Z,0.00
2019-04-16T23:38:07.210Z,0.00
2019-04-16T23:39:07.221Z,0.00
2019-04-16T23:40:10.577Z,0.00
2019-04-16T23:41:07.190Z,0.00
2019-04-16T23:42:07.162Z,0.00
2019-04-16T23:43:07.159Z,0.00
2019-04-16T23:44:07.171Z,0.00
2019-04-16T23:45:07.128Z,0.00
2019-04-16T23:46:07.119Z,0.00
2019-04-16T23:47:10.089Z,0.00